LEAL/ALC METAR and TAF weather

Enter ICAO airport designator
Station Type Date Time Source
LEAL METAR 2020/08/14 03:00 UTC NOAA

LEAL 140300Z 32004KT CAVOK 22/20 Q1013 NOSIG


Station Type Date Time Source
LEAL Decoded METAR 2020/08/14 03:00 UTC NOAA

Alicante / El Altet, Spain (LEAL) 38-17N 000-33W 31M
Aug 13, 2020 - 11:00 PM EDT / 2020.08.14 0300 UTC
Wind: from the NW (320 degrees) at 5 MPH (4 KT):0
Visibility: greater than 7 mile(s):0
Temperature: 71 F (22 C)
Dew Point: 68 F (20 C)
Relative Humidity: 88%
Pressure (altimeter): 29.91 in. Hg (1013 hPa)
ob: LEAL 140300Z 32004KT CAVOK 22/20 Q1013 NOSIG
cycle: 3

Station Type Date Time Source
LEAL TAF 2020/08/13 18:31 UTC NOAA

TAF LEAL 131700Z 1318/1418 13010KT 9999 FEW020 TX31/1413Z TN21/1406Z
BECMG 1318/1320 VRB04KT
BECMG 1410/1412 09010KT

Example: see airport list